TAF Text Data
IDs:
Format:
Raw Decoded Include METAR

Data at: 2105 UTC 08 Aug 2020

KSLN 082053Z 21015KT 10SM CLR 37/19 A2989 RMK AO2 SLP104 T03720194 56007

KSLN 081739Z 0818/0918 19010KT P6SM SKC
  FM082000 19013KT P6SM SKC
  FM090400 17011KT P6SM FEW250 WS020/20040KT
  FM091000 19011KT P6SM SCT200
  FM091500 19015G23KT P6SM FEW200


KATW 082045Z 22008KT 10SM BKN120 27/17 A2999

KATW 081916Z 0819/0918 21008G14KT P6SM VCSH SCT040 BKN090
  FM090100 21006KT P6SM BKN050
  FM090800 23005KT 4SM BR SCT050
  FM091300 21010KT P6SM SCT050